createdAt,value
2023-04-20T00:00:31.220Z,100543.19
2023-04-20T00:02:59.655Z,100548.22
2023-04-20T00:05:27.511Z,100551.91
2023-04-20T00:07:55.034Z,100546.69
2023-04-20T00:10:22.764Z,100546.75
2023-04-20T00:12:50.417Z,100544.19
2023-04-20T00:15:18.146Z,100549.31
2023-04-20T00:17:46.714Z,100543.09
2023-04-20T00:20:15.445Z,100545.66
2023-04-20T00:22:43.162Z,100536.94
2023-04-20T00:25:10.860Z,100545.53
2023-04-20T00:27:38.580Z,100547.22
2023-04-20T00:30:07.863Z,100542.84
2023-04-20T00:32:35.503Z,100532.78
2023-04-20T00:35:03.130Z,100543.09
2023-04-20T00:37:31.115Z,100539.56
2023-04-20T00:39:58.610Z,100525.47
2023-04-20T00:42:26.234Z,100525.34
2023-04-20T00:44:53.863Z,100518.28
2023-04-20T00:47:22.983Z,100528.66
2023-04-20T00:49:52.013Z,100534.47
2023-04-20T00:52:21.281Z,100519.69
2023-04-20T00:54:49.163Z,100517.06
2023-04-20T00:57:19.373Z,100513.47
2023-04-20T00:59:46.906Z,100504.78
2023-04-20T01:02:15.062Z,100510.81
2023-04-20T01:04:42.558Z,100508.06
2023-04-20T01:07:10.362Z,100508.69
2023-04-20T01:09:39.576Z,100513.84
2023-04-20T01:12:11.754Z,100502.56
2023-04-20T01:14:39.636Z,100509.31
2023-04-20T01:17:07.179Z,100504.91
2023-04-20T01:19:34.758Z,100504.00
2023-04-20T01:22:03.405Z,100496.88
2023-04-20T01:24:31.101Z,100503.81
2023-04-20T01:27:01.685Z,100500.13
2023-04-20T01:29:29.917Z,100500.28
2023-04-20T01:31:57.963Z,100499.09
2023-04-20T01:34:26.028Z,100500.72
2023-04-20T01:36:54.696Z,100497.97
2023-04-20T01:39:22.395Z,100493.53
2023-04-20T01:41:50.218Z,100482.00
2023-04-20T01:44:18.712Z,100490.66
2023-04-20T01:46:46.429Z,100500.88
2023-04-20T01:49:14.126Z,100485.91
2023-04-20T01:51:41.630Z,100496.41
2023-04-20T01:54:09.216Z,100489.41
2023-04-20T01:56:36.721Z,100486.72
2023-04-20T01:59:04.907Z,100482.38
2023-04-20T02:01:33.623Z,100488.34
2023-04-20T02:04:01.618Z,100478.78
2023-04-20T02:06:29.320Z,100477.91
2023-04-20T02:08:56.981Z,100478.56
2023-04-20T02:11:24.535Z,100464.69
2023-04-20T02:13:52.220Z,100472.63
2023-04-20T02:16:21.876Z,100476.88
2023-04-20T02:18:49.665Z,100472.56
2023-04-20T02:21:22.495Z,100471.44
2023-04-20T02:23:50.496Z,100466.03
2023-04-20T02:26:18.024Z,100474.81
2023-04-20T02:28:45.594Z,100476.31
2023-04-20T02:31:13.292Z,100478.16
2023-04-20T02:33:41.169Z,100485.88
2023-04-20T02:36:09.122Z,100480.84
2023-04-20T02:38:38.129Z,100488.53
2023-04-20T02:41:08.517Z,100487.09
2023-04-20T02:43:36.481Z,100490.84
2023-04-20T02:46:05.505Z,100485.84
2023-04-20T02:48:33.054Z,100487.00
2023-04-20T02:51:01.290Z,100476.81
2023-04-20T02:53:34.010Z,100470.03
2023-04-20T02:56:17.061Z,100477.22
2023-04-20T02:58:52.244Z,100486.75
2023-04-20T03:01:28.043Z,100485.19
2023-04-20T03:04:05.340Z,100475.78
2023-04-20T03:06:38.724Z,100487.22
2023-04-20T03:09:09.630Z,100465.63
2023-04-20T03:11:42.873Z,100466.78
2023-04-20T03:14:15.418Z,100468.78
2023-04-20T03:16:43.197Z,100463.78
2023-04-20T03:19:12.476Z,100457.09
2023-04-20T03:21:40.636Z,100462.38
2023-04-20T03:24:08.406Z,100461.19
2023-04-20T03:26:36.649Z,100455.47
2023-04-20T03:29:17.426Z,100453.19
2023-04-20T03:31:45.922Z,100454.03
2023-04-20T03:34:13.722Z,100448.13
2023-04-20T03:36:41.958Z,100444.88
2023-04-20T03:39:09.873Z,100453.94
2023-04-20T03:41:37.610Z,100454.16
2023-04-20T03:44:05.365Z,100453.59
2023-04-20T03:46:33.784Z,100462.09
2023-04-20T03:49:01.420Z,100446.75
2023-04-20T03:51:29.268Z,100453.28
2023-04-20T03:53:58.808Z,100442.59
2023-04-20T03:56:27.396Z,100450.91
2023-04-20T03:58:55.992Z,100454.91
2023-04-20T04:01:26.074Z,100445.78
2023-04-20T04:03:53.860Z,100440.06
2023-04-20T04:06:21.913Z,100444.16
2023-04-20T04:08:49.706Z,100447.81
2023-04-20T04:11:17.251Z,100445.81
2023-04-20T04:13:45.087Z,100450.31
2023-04-20T04:16:13.002Z,100437.59
2023-04-20T04:18:44.574Z,100435.47
2023-04-20T04:21:12.218Z,100437.44
2023-04-20T04:23:42.962Z,100439.66
2023-04-20T04:26:21.533Z,100442.88
2023-04-20T04:28:49.543Z,100435.66
2023-04-20T04:31:21.941Z,100436.84
2023-04-20T04:33:50.269Z,100431.16
2023-04-20T04:36:34.380Z,100429.00
2023-04-20T04:39:02.274Z,100427.53
2023-04-20T04:41:30.316Z,100427.88
2023-04-20T04:44:09.604Z,100423.25
2023-04-20T04:46:37.207Z,100423.59
2023-04-20T04:49:05.883Z,100424.00
2023-04-20T04:51:33.781Z,100418.25
2023-04-20T04:54:01.385Z,100416.84
2023-04-20T04:56:29.159Z,100424.38
2023-04-20T04:58:56.849Z,100423.19
2023-04-20T05:01:24.380Z,100413.38
2023-04-20T05:03:52.103Z,100409.50
2023-04-20T05:06:19.961Z,100412.59
2023-04-20T05:08:49.852Z,100406.78
2023-04-20T05:11:17.577Z,100403.53
2023-04-20T05:13:45.280Z,100400.38
2023-04-20T05:16:12.892Z,100400.72
2023-04-20T05:18:40.465Z,100402.84
2023-04-20T05:21:08.078Z,100409.22
2023-04-20T05:23:36.118Z,100405.25
2023-04-20T05:26:03.646Z,100397.47
2023-04-20T05:28:31.205Z,100407.44
2023-04-20T05:30:58.885Z,100398.06
2023-04-20T05:33:26.453Z,100403.56
2023-04-20T05:35:57.951Z,100397.06
2023-04-20T05:38:26.149Z,100396.47
2023-04-20T05:40:53.620Z,100388.84
2023-04-20T05:43:21.197Z,100389.75
2023-04-20T05:45:49.235Z,100377.00
2023-04-20T05:48:16.824Z,100388.53
2023-04-20T05:50:44.342Z,100382.91
2023-04-20T05:53:11.908Z,100382.19
2023-04-20T05:55:39.461Z,100378.84
2023-04-20T05:58:07.097Z,100383.38
2023-04-20T06:00:34.709Z,100384.47
2023-04-20T06:03:03.324Z,100377.72
2023-04-20T06:05:31.438Z,100384.78
2023-04-20T06:07:59.320Z,100387.56
2023-04-20T06:10:32.331Z,100385.06
2023-04-20T06:12:59.931Z,100379.22
2023-04-20T06:15:27.740Z,100382.91
2023-04-20T06:17:55.523Z,100369.22
2023-04-20T06:20:23.389Z,100375.50
2023-04-20T06:22:51.217Z,100374.78
2023-04-20T06:25:18.858Z,100370.56
2023-04-20T06:27:46.812Z,100374.28
2023-04-20T06:30:15.060Z,100370.97
2023-04-20T06:32:42.619Z,100368.50
2023-04-20T06:35:10.765Z,100361.69
2023-04-20T06:37:38.871Z,100364.44
2023-04-20T06:40:10.908Z,100356.66
2023-04-20T06:42:38.890Z,100362.72
2023-04-20T06:45:07.548Z,100354.88
2023-04-20T06:47:36.264Z,100353.97
2023-04-20T06:50:09.937Z,100349.47
2023-04-20T06:52:39.296Z,100351.06
2023-04-20T06:55:07.958Z,100343.13
2023-04-20T06:57:37.360Z,100347.28
2023-04-20T07:00:08.692Z,100339.91
2023-04-20T07:02:48.989Z,100334.28
2023-04-20T07:05:18.186Z,100338.44
2023-04-20T07:07:46.260Z,100331.19
2023-04-20T07:10:15.526Z,100322.75
2023-04-20T07:12:44.258Z,100325.66
2023-04-20T07:15:12.480Z,100325.28
2023-04-20T07:17:40.972Z,100320.31
2023-04-20T07:20:09.457Z,100316.97
2023-04-20T07:22:38.653Z,100314.16
2023-04-20T07:25:11.475Z,100318.41
2023-04-20T07:27:41.125Z,100317.06
2023-04-20T07:30:10.862Z,100306.88
2023-04-20T07:32:39.853Z,100311.69
2023-04-20T07:35:08.179Z,100314.19
2023-04-20T07:37:36.086Z,100299.78
2023-04-20T07:40:07.426Z,100303.56
2023-04-20T07:42:37.300Z,100301.44
2023-04-20T07:45:06.577Z,100294.81
2023-04-20T07:47:35.378Z,100304.72
2023-04-20T07:50:05.128Z,100303.84
2023-04-20T07:52:34.649Z,100288.34
2023-04-20T07:55:03.106Z,100294.09
2023-04-20T07:57:35.664Z,100291.81
2023-04-20T08:00:07.392Z,100289.59
2023-04-20T08:02:41.199Z,100284.25
2023-04-20T08:05:10.571Z,100284.53
2023-04-20T08:07:38.996Z,100289.66
2023-04-20T08:10:07.796Z,100285.88
2023-04-20T08:12:36.611Z,100281.47
2023-04-20T08:15:06.601Z,100281.09
2023-04-20T08:17:34.800Z,100265.03
2023-04-20T08:20:03.632Z,100280.75
2023-04-20T08:22:34.619Z,100276.34
2023-04-20T08:25:02.566Z,100275.28
2023-04-20T08:27:35.055Z,100275.31
2023-04-20T08:30:04.659Z,100273.53
2023-04-20T08:32:39.212Z,100273.69
2023-04-20T08:35:08.791Z,100265.38
2023-04-20T08:37:37.730Z,100264.50
2023-04-20T08:40:07.033Z,100258.84
2023-04-20T08:42:36.181Z,100265.25
2023-04-20T08:45:04.098Z,100256.84
2023-04-20T08:47:37.012Z,100254.88
2023-04-20T08:50:05.718Z,100254.44
2023-04-20T08:52:35.763Z,100243.97
2023-04-20T08:55:04.234Z,100255.97
2023-04-20T08:57:33.735Z,100250.25
2023-04-20T09:00:05.725Z,100257.16
2023-04-20T09:02:36.580Z,100255.25
2023-04-20T09:05:05.445Z,100244.09
2023-04-20T09:07:34.089Z,100237.09
2023-04-20T09:10:02.199Z,100235.53
2023-04-20T09:12:43.331Z,100251.25
2023-04-20T09:15:11.708Z,100240.63
2023-04-20T09:17:41.398Z,100229.91
2023-04-20T09:20:11.468Z,100250.66
2023-04-20T09:22:39.358Z,100243.56
2023-04-20T09:25:17.295Z,100244.84
2023-04-20T09:28:01.539Z,100250.13
2023-04-20T09:30:49.411Z,100229.69
2023-04-20T09:33:17.294Z,100234.94
2023-04-20T09:35:45.774Z,100226.16
2023-04-20T09:38:16.825Z,100226.44
2023-04-20T09:40:44.624Z,100223.31
2023-04-20T09:43:25.281Z,100221.81
2023-04-20T09:45:52.876Z,100223.88
2023-04-20T09:48:21.849Z,100219.16
2023-04-20T09:50:51.506Z,100212.81
2023-04-20T09:53:20.234Z,100213.50
2023-04-20T09:55:50.546Z,100214.28
2023-04-20T09:58:20.400Z,100217.97
2023-04-20T10:00:48.195Z,100217.44
2023-04-20T10:03:20.217Z,100212.19
2023-04-20T10:05:49.090Z,100205.84
2023-04-20T10:08:59.249Z,100216.03
2023-04-20T10:11:34.069Z,100206.97
2023-04-20T10:14:18.917Z,100202.03
2023-04-20T10:16:58.684Z,100200.63
2023-04-20T10:19:37.712Z,100196.06
2023-04-20T10:22:06.113Z,100191.44
2023-04-20T10:24:34.255Z,100191.41
2023-04-20T10:27:04.112Z,100186.91
2023-04-20T10:29:31.971Z,100195.66
2023-04-20T10:32:00.130Z,100183.75
2023-04-20T10:34:34.799Z,100179.56
2023-04-20T10:37:09.940Z,100176.72
2023-04-20T10:39:45.073Z,100178.72
2023-04-20T10:42:13.001Z,100173.50
2023-04-20T10:44:54.330Z,100182.03
2023-04-20T10:47:30.186Z,100182.38
2023-04-20T10:50:17.110Z,100175.16
2023-04-20T10:52:45.041Z,100173.84
2023-04-20T10:55:24.573Z,100178.94
2023-04-20T10:57:52.886Z,100179.00
2023-04-20T11:00:26.342Z,100172.22
2023-04-20T11:02:57.881Z,100183.63
2023-04-20T11:05:27.990Z,100171.69
2023-04-20T11:07:59.195Z,100166.22
2023-04-20T11:10:41.414Z,100168.94
2023-04-20T11:13:30.888Z,100165.75
2023-04-20T11:15:59.374Z,100172.59
2023-04-20T11:18:27.730Z,100168.16
2023-04-20T11:20:56.340Z,100158.97
2023-04-20T11:23:27.503Z,100151.50
2023-04-20T11:25:56.983Z,100152.59
2023-04-20T11:28:26.059Z,100151.03
2023-04-20T11:30:54.491Z,100152.56
2023-04-20T11:33:31.902Z,100143.38
2023-04-20T11:36:01.970Z,100138.97
2023-04-20T11:38:38.585Z,100125.75
2023-04-20T11:41:07.983Z,100130.16
2023-04-20T11:43:36.231Z,100110.59
2023-04-20T11:46:04.025Z,100124.19
2023-04-20T11:48:31.985Z,100119.22
2023-04-20T11:50:59.458Z,100115.53
2023-04-20T11:53:26.950Z,100126.13
2023-04-20T11:55:54.498Z,100114.94
2023-04-20T11:58:22.616Z,100128.28
2023-04-20T12:00:51.243Z,100116.53
2023-04-20T12:03:19.142Z,100116.38
2023-04-20T12:05:46.973Z,100119.00
2023-04-20T12:08:14.666Z,100110.59
2023-04-20T12:10:42.288Z,100114.44
2023-04-20T12:13:09.969Z,100098.09
2023-04-20T12:15:37.857Z,100100.00
2023-04-20T12:18:05.672Z,100095.72
2023-04-20T12:20:33.356Z,100092.34
2023-04-20T12:23:02.447Z,100083.84
2023-04-20T12:25:30.039Z,100080.38
2023-04-20T12:27:57.605Z,100072.97
2023-04-20T12:30:25.344Z,100069.47
2023-04-20T12:32:53.022Z,100078.28
2023-04-20T12:35:21.183Z,100069.50
2023-04-20T12:37:48.824Z,100069.94
2023-04-20T12:40:16.307Z,100070.41
2023-04-20T12:42:44.143Z,100058.94
2023-04-20T12:45:11.875Z,100052.41
2023-04-20T12:47:39.450Z,100047.66
2023-04-20T12:50:07.738Z,100058.56
2023-04-20T12:52:35.513Z,100046.00
2023-04-20T12:55:03.605Z,100039.84
2023-04-20T12:57:32.442Z,100048.69
2023-04-20T13:00:02.895Z,100047.19
2023-04-20T13:02:34.712Z,100039.28
2023-04-20T13:05:02.509Z,100041.31
2023-04-20T13:07:31.928Z,100037.13
2023-04-20T13:10:02.125Z,100025.22
2023-04-20T13:12:32.468Z,100023.81
2023-04-20T13:14:59.967Z,100033.91
2023-04-20T13:17:27.675Z,100024.63
2023-04-20T13:19:55.141Z,100023.22
2023-04-20T13:22:22.918Z,100031.94
2023-04-20T13:24:50.485Z,100029.78
2023-04-20T13:27:18.135Z,100020.41
2023-04-20T13:29:45.905Z,100026.34
2023-04-20T13:32:13.786Z,100029.06
2023-04-20T13:34:41.466Z,100027.72
2023-04-20T13:37:09.001Z,100023.56
2023-04-20T13:39:36.918Z,100018.03
2023-04-20T13:42:04.388Z,100023.69
2023-04-20T13:44:31.847Z,100022.22
2023-04-20T13:46:59.577Z,100029.44
2023-04-20T13:49:27.238Z,100011.31
2023-04-20T13:51:55.488Z,100014.03
2023-04-20T13:54:23.022Z,100012.41
2023-04-20T13:56:51.422Z,100018.56
2023-04-20T13:59:18.874Z,100020.38
2023-04-20T14:01:46.526Z,100021.25
2023-04-20T14:04:17.047Z,100024.78
2023-04-20T14:06:45.026Z,100018.69
2023-04-20T14:09:12.763Z,100016.94
2023-04-20T14:11:41.108Z,100020.41
2023-04-20T14:14:08.735Z,100024.75
2023-04-20T14:16:46.889Z,100022.06
2023-04-20T14:19:15.531Z,100032.47
2023-04-20T14:21:46.775Z,100033.22
2023-04-20T14:24:14.664Z,100032.31
2023-04-20T14:26:42.465Z,100031.34
2023-04-20T14:29:10.218Z,100035.63
2023-04-20T14:31:38.568Z,100036.44
2023-04-20T14:34:06.403Z,100036.34
2023-04-20T14:36:34.389Z,100040.69
2023-04-20T14:39:02.245Z,100037.13
2023-04-20T14:41:31.174Z,100038.78
2023-04-20T14:43:59.839Z,100039.56
2023-04-20T14:46:28.018Z,100049.03
2023-04-20T14:48:55.625Z,100045.44
2023-04-20T14:51:23.274Z,100048.75
2023-04-20T14:53:50.861Z,100052.16
2023-04-20T14:56:18.479Z,100049.41
2023-04-20T14:58:48.078Z,100038.81
2023-04-20T15:01:16.005Z,100036.03
2023-04-20T15:03:46.905Z,100040.34
2023-04-20T15:06:14.868Z,100040.22
2023-04-20T15:08:42.613Z,100041.06
2023-04-20T15:11:10.527Z,100036.72
2023-04-20T15:13:41.249Z,100038.44
2023-04-20T15:16:09.259Z,100034.09
2023-04-20T15:18:37.072Z,100036.78
2023-04-20T15:21:05.267Z,100040.09
2023-04-20T15:23:33.330Z,100039.28
2023-04-20T15:26:00.980Z,100040.94
2023-04-20T15:28:28.719Z,100034.03
2023-04-20T15:30:56.786Z,100033.03
2023-04-20T15:33:24.433Z,100029.47
2023-04-20T15:35:52.003Z,100026.00
2023-04-20T15:38:19.607Z,100016.38
2023-04-20T15:40:47.192Z,100019.84
2023-04-20T15:43:14.804Z,100025.03
2023-04-20T15:45:44.641Z,100034.59
2023-04-20T15:48:12.768Z,100031.88
2023-04-20T15:50:40.402Z,100024.88
2023-04-20T15:53:08.059Z,100030.13
2023-04-20T15:55:39.619Z,100027.53
2023-04-20T15:58:07.458Z,100024.94
2023-04-20T16:00:35.056Z,100025.81
2023-04-20T16:03:02.769Z,100032.72
2023-04-20T16:05:30.945Z,100018.69
2023-04-20T16:08:01.564Z,100019.63
2023-04-20T16:10:32.011Z,100021.28
2023-04-20T16:12:59.772Z,100016.91
2023-04-20T16:15:27.533Z,100030.69
2023-04-20T16:17:55.216Z,100013.28
2023-04-20T16:20:22.879Z,100016.75
2023-04-20T16:22:50.554Z,100017.56
2023-04-20T16:25:23.174Z,100026.22
2023-04-20T16:27:51.907Z,100017.56
2023-04-20T16:30:19.935Z,100021.88
2023-04-20T16:32:47.703Z,100009.66
2023-04-20T16:35:15.538Z,100013.09
2023-04-20T16:37:45.429Z,100015.56
2023-04-20T16:40:12.983Z,100012.03
2023-04-20T16:42:40.518Z,100005.81
2023-04-20T16:45:08.519Z,100011.78
2023-04-20T16:47:36.157Z,100009.16
2023-04-20T16:50:07.212Z,100004.63
2023-04-20T16:52:35.429Z,100021.78
2023-04-20T16:55:03.457Z,100004.38
2023-04-20T16:57:32.103Z,100019.00
2023-04-20T16:59:59.738Z,100018.84
2023-04-20T17:02:32.927Z,100011.00
2023-04-20T17:05:01.042Z,100015.19
2023-04-20T17:07:29.533Z,100011.56
2023-04-20T17:09:57.529Z,100014.03
2023-04-20T17:12:25.587Z,100013.97
2023-04-20T17:14:53.228Z,100010.41
2023-04-20T17:17:20.840Z,100005.97
2023-04-20T17:19:48.338Z,100019.00
2023-04-20T17:22:16.479Z,100016.22
2023-04-20T17:24:44.178Z,100016.94
2023-04-20T17:27:11.888Z,100018.56
2023-04-20T17:29:39.609Z,100026.28
2023-04-20T17:32:07.343Z,100023.53
2023-04-20T17:34:36.001Z,100018.34
2023-04-20T17:37:03.891Z,100019.94
2023-04-20T17:39:31.456Z,100024.22
2023-04-20T17:41:58.994Z,100026.72
2023-04-20T17:44:26.568Z,100025.81
2023-04-20T17:46:54.711Z,100024.06
2023-04-20T17:49:22.471Z,100020.47
2023-04-20T17:51:50.085Z,100023.03
2023-04-20T17:54:18.595Z,100020.31
2023-04-20T17:56:46.403Z,100031.56
2023-04-20T17:59:14.107Z,100027.09
2023-04-20T18:01:41.692Z,100026.06
2023-04-20T18:04:10.200Z,100033.06
2023-04-20T18:06:38.105Z,100020.75
2023-04-20T18:09:05.778Z,100030.19
2023-04-20T18:11:33.621Z,100017.19
2023-04-20T18:14:01.221Z,100025.84
2023-04-20T18:16:29.030Z,100024.06
2023-04-20T18:18:56.706Z,100019.63
2023-04-20T18:21:24.224Z,100027.41
2023-04-20T18:23:52.098Z,100023.91
2023-04-20T18:26:20.585Z,100024.63
2023-04-20T18:28:48.366Z,100025.34
2023-04-20T18:31:15.929Z,100031.25
2023-04-20T18:33:43.548Z,100029.41
2023-04-20T18:36:11.223Z,100024.09
2023-04-20T18:38:38.796Z,100024.09
2023-04-20T18:41:06.489Z,100021.31
2023-04-20T18:43:34.101Z,100021.22
2023-04-20T18:46:01.708Z,100016.06
2023-04-20T18:48:29.354Z,100014.19
2023-04-20T18:50:56.822Z,100021.00
2023-04-20T18:53:24.657Z,100021.88
2023-04-20T18:55:53.040Z,100026.16
2023-04-20T18:58:20.718Z,100032.19
2023-04-20T19:00:49.216Z,100025.44
2023-04-20T19:03:17.249Z,100022.84
2023-04-20T19:05:45.400Z,100024.66
2023-04-20T19:08:12.896Z,100022.09
2023-04-20T19:10:40.730Z,100024.50
2023-04-20T19:13:08.456Z,100021.78
2023-04-20T19:15:36.100Z,100018.28
2023-04-20T19:18:03.878Z,100032.13
2023-04-20T19:20:31.558Z,100022.53
2023-04-20T19:22:59.156Z,100020.03
2023-04-20T19:25:27.869Z,100031.19
2023-04-20T19:27:56.232Z,100026.91
2023-04-20T19:30:23.807Z,100020.03
2023-04-20T19:32:51.353Z,100034.84
2023-04-20T19:35:19.121Z,100026.91
2023-04-20T19:37:47.219Z,100033.78
2023-04-20T19:40:14.934Z,100034.50
2023-04-20T19:42:42.777Z,100030.91
2023-04-20T19:45:10.471Z,100030.84
2023-04-20T19:47:38.301Z,100031.69
2023-04-20T19:50:06.674Z,100028.19
2023-04-20T19:52:35.216Z,100027.19
2023-04-20T19:55:05.519Z,100024.44
2023-04-20T19:57:33.324Z,100024.38
2023-04-20T20:00:01.043Z,100025.94
2023-04-20T20:02:31.484Z,100021.53
2023-04-20T20:04:59.503Z,100018.06
2023-04-20T20:07:28.131Z,100020.53
2023-04-20T20:09:55.924Z,100013.56
2023-04-20T20:12:23.448Z,100021.97
2023-04-20T20:14:51.062Z,100017.53
2023-04-20T20:17:19.570Z,100027.88
2023-04-20T20:19:47.218Z,100017.31
2023-04-20T20:22:14.860Z,100025.94
2023-04-20T20:24:44.706Z,100023.25
2023-04-20T20:27:12.250Z,100019.69
2023-04-20T20:29:40.129Z,100024.75
2023-04-20T20:32:07.879Z,100023.56
2023-04-20T20:34:35.393Z,100028.63
2023-04-20T20:37:04.559Z,100029.53
2023-04-20T20:39:35.058Z,100032.06
2023-04-20T20:42:04.120Z,100030.38
2023-04-20T20:44:35.164Z,100033.97
2023-04-20T20:47:03.195Z,100027.81
2023-04-20T20:49:31.060Z,100027.75
2023-04-20T20:51:58.692Z,100026.06
2023-04-20T20:54:26.401Z,100017.50
2023-04-20T20:56:54.103Z,100025.06
2023-04-20T20:59:22.124Z,100020.66
2023-04-20T21:01:51.353Z,100014.50
2023-04-20T21:04:19.457Z,100009.19
2023-04-20T21:06:47.445Z,100009.19
2023-04-20T21:09:15.715Z,100008.25
2023-04-20T21:11:43.437Z,100008.97
2023-04-20T21:14:11.215Z,99989.84
2023-04-20T21:16:39.557Z,100002.97
2023-04-20T21:19:07.226Z,99997.66
2023-04-20T21:21:35.104Z,99998.41
2023-04-20T21:24:02.882Z,100006.16
2023-04-20T21:26:35.769Z,99999.28
2023-04-20T21:29:04.299Z,99991.41
2023-04-20T21:31:32.846Z,100005.94
2023-04-20T21:34:00.635Z,99996.34
2023-04-20T21:36:28.546Z,99994.44
2023-04-20T21:38:56.311Z,100002.09
2023-04-20T21:41:27.649Z,100007.19
2023-04-20T21:43:56.267Z,99999.31
2023-04-20T21:46:23.924Z,99999.19
2023-04-20T21:48:51.793Z,99992.16
2023-04-20T21:51:19.747Z,99998.06
2023-04-20T21:53:47.423Z,99989.38
2023-04-20T21:56:15.598Z,99992.56
2023-04-20T21:58:43.664Z,100002.91
2023-04-20T22:01:11.258Z,99992.50
2023-04-20T22:03:39.259Z,99988.06
2023-04-20T22:06:07.336Z,99994.06
2023-04-20T22:08:36.431Z,100000.81
2023-04-20T22:11:03.949Z,99989.59
2023-04-20T22:13:31.862Z,99992.28
2023-04-20T22:15:59.516Z,99991.22
2023-04-20T22:18:27.231Z,99995.56
2023-04-20T22:20:54.815Z,99983.47
2023-04-20T22:23:22.476Z,99991.22
2023-04-20T22:25:50.087Z,99991.16
2023-04-20T22:28:17.896Z,99976.31
2023-04-20T22:30:45.547Z,99987.66
2023-04-20T22:33:13.130Z,99977.22
2023-04-20T22:35:40.741Z,99988.38
2023-04-20T22:38:08.350Z,99982.91
2023-04-20T22:40:36.062Z,99978.47
2023-04-20T22:43:03.838Z,99973.16
2023-04-20T22:45:31.474Z,99961.19
2023-04-20T22:47:59.172Z,99975.41
2023-04-20T22:50:26.794Z,99972.19
2023-04-20T22:52:54.344Z,99970.25
2023-04-20T22:55:21.965Z,99970.13
2023-04-20T22:57:49.457Z,99967.47
2023-04-20T23:00:17.420Z,99966.63
2023-04-20T23:02:45.206Z,99973.47
2023-04-20T23:05:12.904Z,99976.94
2023-04-20T23:07:40.558Z,99971.63
2023-04-20T23:10:09.038Z,99963.84
2023-04-20T23:12:36.958Z,99968.00
2023-04-20T23:15:06.102Z,99971.38
2023-04-20T23:17:35.456Z,99970.44
2023-04-20T23:20:03.688Z,99970.19
2023-04-20T23:22:32.676Z,99961.53
2023-04-20T23:25:00.429Z,99963.19
2023-04-20T23:27:27.912Z,99959.59
2023-04-20T23:29:55.476Z,99960.22
2023-04-20T23:32:23.143Z,99957.63
2023-04-20T23:34:51.139Z,99953.22
2023-04-20T23:37:18.859Z,99949.03
2023-04-20T23:39:46.480Z,99953.22
2023-04-20T23:42:14.055Z,99957.38
2023-04-20T23:44:41.696Z,99947.91
2023-04-20T23:47:09.209Z,99939.81
2023-04-20T23:49:38.290Z,99952.78
2023-04-20T23:52:06.078Z,99941.47
2023-04-20T23:54:34.083Z,99948.16
2023-04-20T23:57:02.824Z,99947.31
2023-04-20T23:59:30.702Z,99942.19
